createdAt,value
2018-12-16T00:01:41.040Z,20.90
2018-12-16T00:06:44.628Z,20.43
2018-12-16T00:11:48.245Z,23.37
2018-12-16T00:16:51.831Z,17.43
2018-12-16T00:21:55.732Z,21.97
2018-12-16T00:27:11.067Z,20.77
2018-12-16T00:32:14.731Z,23.47
2018-12-16T00:37:18.406Z,16.97
2018-12-16T00:42:21.823Z,13.60
2018-12-16T00:47:25.372Z,15.10
2018-12-16T00:52:29.280Z,18.10
2018-12-16T00:57:32.900Z,22.27
2018-12-16T01:02:42.036Z,18.20
2018-12-16T01:07:45.693Z,21.30
2018-12-16T01:12:49.192Z,17.60
2018-12-16T01:17:52.720Z,20.77
2018-12-16T01:22:56.196Z,15.87
2018-12-16T01:27:59.632Z,12.93
2018-12-16T01:33:03.172Z,19.13
2018-12-16T01:38:06.976Z,22.73
2018-12-16T01:43:10.561Z,12.80
2018-12-16T01:48:14.269Z,19.17
2018-12-16T01:53:17.679Z,15.73
2018-12-16T01:58:21.665Z,15.43
2018-12-16T02:03:25.428Z,20.37
2018-12-16T02:08:28.900Z,20.97
2018-12-16T02:13:32.373Z,21.40
2018-12-16T02:18:36.045Z,22.03
2018-12-16T02:23:39.796Z,18.63
2018-12-16T02:28:43.256Z,12.97
2018-12-16T02:33:46.673Z,18.53
2018-12-16T02:38:50.342Z,22.97
2018-12-16T02:43:54.160Z,20.30
2018-12-16T02:48:57.614Z,12.47
2018-12-16T02:54:01.068Z,18.93
2018-12-16T02:59:04.688Z,14.73
2018-12-16T03:04:08.121Z,19.50
2018-12-16T03:09:11.832Z,16.97
2018-12-16T03:14:15.258Z,23.83
2018-12-16T03:19:18.756Z,21.47
2018-12-16T03:24:22.281Z,15.20
2018-12-16T03:29:25.738Z,23.60
2018-12-16T03:34:29.241Z,14.77
2018-12-16T03:39:32.667Z,21.40
2018-12-16T03:44:36.127Z,15.10
2018-12-16T03:49:39.853Z,24.33
2018-12-16T03:54:43.379Z,20.37
2018-12-16T03:59:47.180Z,17.10
2018-12-16T04:04:50.694Z,24.17
2018-12-16T04:09:54.162Z,23.10
2018-12-16T04:14:57.669Z,22.43
2018-12-16T04:20:01.191Z,18.50
2018-12-16T04:25:05.340Z,23.00
2018-12-16T04:30:08.950Z,23.20
2018-12-16T04:35:12.500Z,17.40
2018-12-16T04:40:16.071Z,26.47
2018-12-16T04:45:19.488Z,18.70
2018-12-16T04:50:23.145Z,27.77
2018-12-16T04:55:26.662Z,24.60
2018-12-16T05:00:30.491Z,23.90
2018-12-16T05:05:34.104Z,22.03
2018-12-16T05:10:37.799Z,24.87
2018-12-16T05:15:41.217Z,25.63
2018-12-16T05:20:44.700Z,22.50
2018-12-16T05:25:48.468Z,33.77
2018-12-16T05:30:52.015Z,27.77
2018-12-16T05:35:55.433Z,26.40
2018-12-16T05:40:59.039Z,28.93
2018-12-16T05:46:02.521Z,28.67
2018-12-16T05:51:06.036Z,25.07
2018-12-16T05:56:09.752Z,33.63
2018-12-16T06:01:13.224Z,29.37
2018-12-16T06:06:16.666Z,36.20
2018-12-16T06:11:20.144Z,28.73
2018-12-16T06:16:24.133Z,28.20
2018-12-16T06:21:27.644Z,27.53
2018-12-16T06:26:31.408Z,32.93
2018-12-16T06:31:34.828Z,29.80
2018-12-16T06:36:38.488Z,33.30
2018-12-16T06:41:42.060Z,28.63
2018-12-16T06:46:45.618Z,29.13
2018-12-16T06:51:49.132Z,33.57
2018-12-16T06:56:52.712Z,22.27
2018-12-16T07:01:56.208Z,38.53
2018-12-16T07:06:59.724Z,38.53
2018-12-16T07:12:03.399Z,31.00
2018-12-16T07:17:07.020Z,32.60
2018-12-16T07:22:10.588Z,34.00
2018-12-16T07:27:14.245Z,30.43
2018-12-16T07:32:17.708Z,40.37
2018-12-16T07:37:21.248Z,31.30
2018-12-16T07:42:24.937Z,35.63
2018-12-16T07:47:28.433Z,36.83
2018-12-16T07:52:31.863Z,39.90
2018-12-16T07:57:35.536Z,35.43
2018-12-16T08:02:39.116Z,41.07
2018-12-16T08:07:42.695Z,32.63
2018-12-16T08:12:46.384Z,36.97
2018-12-16T08:17:49.836Z,39.90
2018-12-16T08:22:53.440Z,34.03
2018-12-16T08:27:57.065Z,38.57
2018-12-16T08:33:00.493Z,27.50
2018-12-16T08:38:04.037Z,37.50
2018-12-16T08:43:07.444Z,39.10
2018-12-16T08:48:11.244Z,35.07
2018-12-16T08:53:14.916Z,36.70
2018-12-16T08:58:18.357Z,33.53
2018-12-16T09:03:21.787Z,37.53
2018-12-16T09:08:25.255Z,43.97
2018-12-16T09:13:28.864Z,36.70
2018-12-16T09:18:32.661Z,35.77
2018-12-16T09:23:36.207Z,32.97
2018-12-16T09:28:40.703Z,40.03
2018-12-16T09:33:44.581Z,33.30
2018-12-16T09:38:48.291Z,34.83
2018-12-16T09:43:51.896Z,53.20
2018-12-16T09:48:55.628Z,41.37
2018-12-16T09:53:59.232Z,43.20
2018-12-16T09:59:02.655Z,44.60
2018-12-16T10:04:06.259Z,38.07
2018-12-16T10:09:09.936Z,39.43
2018-12-16T10:14:13.443Z,35.60
2018-12-16T10:19:16.904Z,36.93
2018-12-16T10:24:20.420Z,38.07
2018-12-16T10:29:24.105Z,41.77
2018-12-16T10:34:27.515Z,33.47
2018-12-16T10:39:31.172Z,37.33
2018-12-16T10:44:34.621Z,46.50
2018-12-16T10:49:38.040Z,33.77
2018-12-16T10:54:41.593Z,40.07
2018-12-16T10:59:45.126Z,34.90
2018-12-16T11:04:48.538Z,38.53
2018-12-16T11:09:52.151Z,41.13
2018-12-16T11:14:56.488Z,37.73
2018-12-16T11:20:00.109Z,35.80
2018-12-16T11:25:05.857Z,39.43
2018-12-16T11:30:10.277Z,36.47
2018-12-16T11:35:14.076Z,35.63
2018-12-16T11:40:17.663Z,37.30
2018-12-16T11:45:21.464Z,37.17
2018-12-16T11:50:25.392Z,43.43
2018-12-16T11:55:29.515Z,42.90
2018-12-16T12:00:32.921Z,41.83
2018-12-16T12:05:36.429Z,42.03
2018-12-16T12:10:40.059Z,35.63
2018-12-16T12:15:43.575Z,35.97
2018-12-16T12:20:47.089Z,33.57
2018-12-16T12:25:50.651Z,32.13
2018-12-16T12:30:54.504Z,40.83
2018-12-16T12:35:57.952Z,34.87
2018-12-16T12:41:01.369Z,37.27
2018-12-16T12:46:05.025Z,38.03
2018-12-16T12:51:08.488Z,37.67
2018-12-16T12:56:12.049Z,43.53
2018-12-16T13:01:15.505Z,41.67
2018-12-16T13:06:19.072Z,42.87
2018-12-16T13:11:22.853Z,42.67
2018-12-16T13:16:26.356Z,39.00
2018-12-16T13:21:30.244Z,39.70
2018-12-16T13:26:34.317Z,61.40
2018-12-16T13:31:37.884Z,38.30
2018-12-16T13:36:41.449Z,47.03
2018-12-16T13:41:45.052Z,44.63
2018-12-16T13:46:48.532Z,41.80
2018-12-16T13:51:52.266Z,53.23
2018-12-16T13:56:55.696Z,45.70
2018-12-16T14:01:59.156Z,43.90
2018-12-16T14:07:02.684Z,54.37
2018-12-16T14:12:06.287Z,53.80
2018-12-16T14:17:09.756Z,54.13
2018-12-16T14:22:13.347Z,51.90
2018-12-16T14:27:16.789Z,45.20
2018-12-16T14:32:20.520Z,53.27
2018-12-16T14:37:24.109Z,55.53
2018-12-16T14:42:27.696Z,54.23
2018-12-16T14:47:31.308Z,54.10
2018-12-16T14:52:34.812Z,48.03
2018-12-16T14:57:38.212Z,69.90
2018-12-16T15:02:41.752Z,77.53
2018-12-16T15:07:45.264Z,71.07
2018-12-16T15:12:48.744Z,68.87
2018-12-16T15:17:52.454Z,68.97
2018-12-16T15:22:56.168Z,65.43
2018-12-16T15:27:59.932Z,83.57
2018-12-16T15:33:03.368Z,54.57
2018-12-16T15:38:06.953Z,61.87
2018-12-16T15:43:10.459Z,58.23
2018-12-16T15:48:14.048Z,53.00
2018-12-16T15:53:17.768Z,58.47
2018-12-16T15:58:21.337Z,59.83
2018-12-16T16:03:25.004Z,61.53
2018-12-16T16:08:28.568Z,55.03
2018-12-16T16:13:32.035Z,60.67
2018-12-16T16:18:35.756Z,71.37
2018-12-16T16:23:39.264Z,57.37
2018-12-16T16:28:42.696Z,56.53
2018-12-16T16:33:46.263Z,59.00
2018-12-16T16:38:49.804Z,63.67
2018-12-16T16:43:53.528Z,53.27
2018-12-16T16:48:57.096Z,49.37
2018-12-16T16:54:00.540Z,84.60
2018-12-16T16:59:04.100Z,81.00
2018-12-16T17:04:07.647Z,73.20
2018-12-16T17:09:11.152Z,87.40
2018-12-16T17:14:14.930Z,66.10
2018-12-16T17:19:18.562Z,63.10
2018-12-16T17:24:22.203Z,56.50
2018-12-16T17:29:25.771Z,66.50
2018-12-16T17:34:29.379Z,62.83
2018-12-16T17:39:33.344Z,57.03
2018-12-16T17:44:36.835Z,52.73
2018-12-16T17:49:40.456Z,49.63
2018-12-16T17:54:44.768Z,50.63
2018-12-16T17:59:48.719Z,51.87
2018-12-16T18:04:52.255Z,55.63
2018-12-16T18:09:55.859Z,58.40
2018-12-16T18:14:59.379Z,57.20
2018-12-16T18:20:03.305Z,55.63
2018-12-16T18:25:07.041Z,62.10
2018-12-16T18:30:11.088Z,53.70
2018-12-16T18:35:15.057Z,52.17
2018-12-16T18:40:18.868Z,55.47
2018-12-16T18:45:22.284Z,58.03
2018-12-16T18:50:25.859Z,56.20
2018-12-16T18:55:29.273Z,56.60
2018-12-16T19:00:32.780Z,60.70
2018-12-16T19:05:36.274Z,52.23
2018-12-16T19:10:39.796Z,79.03
2018-12-16T19:15:43.838Z,63.40
2018-12-16T19:20:47.391Z,85.23
2018-12-16T19:25:50.966Z,69.17
2018-12-16T19:30:54.794Z,58.73
2018-12-16T19:35:58.456Z,48.00
2018-12-16T19:41:01.967Z,48.87
2018-12-16T19:46:05.689Z,53.23
2018-12-16T19:51:09.124Z,51.17
2018-12-16T19:56:12.605Z,106.53
2018-12-16T20:01:16.073Z,107.50
2018-12-16T20:06:24.972Z,62.00
2018-12-16T20:11:28.471Z,71.60
2018-12-16T20:16:32.039Z,73.03
2018-12-16T20:21:35.712Z,53.23
2018-12-16T20:26:39.259Z,51.50
2018-12-16T20:31:42.856Z,67.03
2018-12-16T20:36:46.395Z,76.60
2018-12-16T20:41:49.864Z,56.13
2018-12-16T20:46:53.520Z,63.17
2018-12-16T20:51:57.011Z,82.83
2018-12-16T20:57:00.729Z,61.73
2018-12-16T21:02:04.352Z,50.27
2018-12-16T21:07:07.896Z,66.00
2018-12-16T21:13:18.956Z,58.03
2018-12-16T21:18:25.476Z,77.47
2018-12-16T21:23:29.836Z,61.37
2018-12-16T21:28:33.369Z,64.70
2018-12-16T21:33:37.178Z,63.67
2018-12-16T21:38:40.925Z,74.20
2018-12-16T21:43:44.544Z,77.97
2018-12-16T21:48:47.948Z,63.40
2018-12-16T21:53:51.776Z,60.33
2018-12-16T21:58:55.353Z,67.80
2018-12-16T22:03:58.840Z,59.13
2018-12-16T22:09:02.480Z,66.20
2018-12-16T22:14:06.184Z,62.60
2018-12-16T22:19:09.668Z,69.30
2018-12-16T22:24:13.301Z,75.07
2018-12-16T22:29:16.735Z,67.27
2018-12-16T22:34:20.157Z,74.53
2018-12-16T22:39:24.841Z,66.07
2018-12-16T22:44:28.476Z,63.00
2018-12-16T22:49:31.904Z,63.00
2018-12-16T22:54:35.441Z,61.73
2018-12-16T22:59:38.952Z,75.93
2018-12-16T23:04:42.485Z,68.07
2018-12-16T23:09:46.024Z,72.13
2018-12-16T23:14:51.066Z,68.70
2018-12-16T23:20:00.232Z,67.47
2018-12-16T23:25:04.094Z,63.43
2018-12-16T23:30:08.539Z,68.97
2018-12-16T23:35:12.035Z,73.30
2018-12-16T23:40:15.500Z,73.03
2018-12-16T23:45:19.223Z,78.77
2018-12-16T23:50:22.692Z,69.23
2018-12-16T23:55:26.373Z,68.67
